Time;durP1;ratioP1;P1;durP2;ratioP2;P2;SDS_P1;SDS_P2;PMS_P1;PMS_P2;Temp;Humidity;BMP_temperature;BMP_pressure;BME280_temperature;BME280_humidity;BME280_pressure;Samples;Min_cycle;Max_cycle;Signal;HPM_P1;HPM_P2
2023/11/06 00:01:23;;;;;;;3.50;0.70;;;;;;;13.60;72.99;98641.91;6168661;23;20028;-96
2023/11/06 00:03:50;;;;;;;0.82;0.40;;;;;;;13.50;72.31;98613.19;6143943;23;20007;-94
2023/11/06 00:06:16;;;;;;;0.68;0.50;;;;;;;13.64;72.14;98637.50;6168698;23;20001;-96
2023/11/06 00:08:44;;;;;;;0.90;0.50;;;;;;;13.50;71.94;98634.84;6143600;23;20031;-95
2023/11/06 00:11:10;;;;;;;0.45;0.40;;;;;;;13.45;72.13;98649.28;6143815;23;20351;-94
2023/11/06 00:13:38;;;;;;;0.73;0.40;;;;;;;13.56;72.37;98640.94;6167406;23;20000;-94
2023/11/06 00:16:06;;;;;;;0.95;0.60;;;;;;;13.57;73.21;98637.09;6144445;23;20377;-95
2023/11/06 00:18:32;;;;;;;2.83;0.80;;;;;;;13.48;74.00;98626.22;6144555;23;20008;-95
2023/11/06 00:21:02;;;;;;;3.97;1.58;;;;;;;13.34;75.05;98621.69;6169298;23;20000;-94
2023/11/06 00:23:30;;;;;;;2.28;1.55;;;;;;;13.33;74.27;98622.75;6144747;23;20063;-94
2023/11/06 00:26:03;;;;;;;2.75;1.73;;;;;;;13.38;74.84;98637.28;6143687;23;20083;-94
2023/11/06 00:28:29;;;;;;;6.25;1.40;;;;;;;13.38;73.82;98602.13;6169544;23;20381;-96
2023/11/06 00:30:56;;;;;;;0.68;0.68;;;;;;;13.42;73.56;98587.69;6168375;23;20004;-96
2023/11/06 00:33:23;;;;;;;1.67;0.70;;;;;;;13.44;73.40;98581.97;6144499;23;20074;-95
2023/11/06 00:35:50;;;;;;;0.75;0.60;;;;;;;13.43;72.77;98573.06;6144724;23;20000;-94
2023/11/06 00:38:18;;;;;;;0.52;0.50;;;;;;;13.49;72.92;98588.06;6168144;23;20032;-96
2023/11/06 00:40:43;;;;;;;0.40;0.40;;;;;;;13.45;72.59;98578.19;6168341;23;20509;-96
2023/11/06 00:43:16;;;;;;;0.45;0.45;;;;;;;13.49;72.33;98569.13;6167724;23;19984;-96
2023/11/06 00:45:44;;;;;;;0.57;0.50;;;;;;;13.38;71.70;98550.75;6170226;23;20019;-94
2023/11/06 00:48:19;;;;;;;2.05;0.32;;;;;;;13.26;72.17;98541.25;6167951;23;20055;-94
2023/11/06 00:50:45;;;;;;;0.57;0.40;;;;;;;13.22;72.05;98548.38;6146385;23;20423;-94
2023/11/06 00:53:10;;;;;;;0.77;0.38;;;;;;;13.36;71.63;98555.66;6167404;23;19993;-95
2023/11/06 00:55:39;;;;;;;0.30;0.30;;;;;;;13.23;71.56;98528.34;6142109;23;19996;-92
2023/11/06 00:58:05;;;;;;;1.00;0.45;;;;;;;13.49;71.08;98566.44;6168115;23;20405;-94
2023/11/06 01:00:32;;;;;;;0.30;0.22;;;;;;;13.45;70.90;98554.63;6142595;23;20007;-93
2023/11/06 01:02:58;;;;;;;0.60;0.50;;;;;;;13.38;70.86;98540.72;6167992;23;20083;-96
2023/11/06 01:05:24;;;;;;;0.90;0.40;;;;;;;13.36;70.75;98534.81;6142586;23;20450;-96
2023/11/06 01:07:50;;;;;;;0.40;0.30;;;;;;;13.51;70.88;98550.69;6168008;23;20336;-94
2023/11/06 01:10:19;;;;;;;1.10;0.40;;;;;;;13.37;70.57;98522.91;6167306;23;20012;-96
2023/11/06 01:12:47;;;;;;;1.83;0.35;;;;;;;13.38;70.79;98535.31;6168847;23;20032;-95
2023/11/06 01:15:23;;;;;;;0.47;0.30;;;;;;;13.40;71.01;98516.88;6143612;23;19997;-94
2023/11/06 01:17:49;;;;;;;2.15;0.40;;;;;;;13.21;72.23;98505.44;6172536;23;20000;-94
2023/11/06 01:20:15;;;;;;;1.00;0.60;;;;;;;13.19;71.78;98508.44;6142649;23;19996;-94
2023/11/06 01:22:40;;;;;;;0.93;0.30;;;;;;;13.36;71.61;98525.91;6142163;23;20420;-94
2023/11/06 01:25:11;;;;;;;0.55;0.40;;;;;;;13.25;71.52;98506.41;6143222;23;20032;-94
2023/11/06 01:27:36;;;;;;;2.90;0.57;;;;;;;13.33;71.80;98519.22;6168059;23;20016;-94
2023/11/06 01:30:07;;;;;;;1.98;0.40;;;;;;;13.38;71.25;98518.31;6167396;23;20008;-95
2023/11/06 01:32:33;;;;;;;1.70;0.50;;;;;;;13.50;70.97;98532.06;6144425;23;20001;-95
2023/11/06 01:34:59;;;;;;;0.28;0.28;;;;;;;13.46;70.37;98523.75;6142946;23;20395;-94
2023/11/06 01:37:32;;;;;;;0.40;0.40;;;;;;;13.51;70.30;98549.91;6168103;23;19996;-96
2023/11/06 01:40:00;;;;;;;1.05;0.40;;;;;;;13.58;69.76;98569.19;6168986;23;20006;-95
2023/11/06 01:42:26;;;;;;;0.55;0.55;;;;;;;13.42;70.13;98544.41;6167719;23;20031;-96
2023/11/06 01:44:56;;;;;;;1.05;0.55;;;;;;;13.39;69.64;98542.34;6142704;23;20014;-94
2023/11/06 01:47:24;;;;;;;0.85;0.70;;;;;;;13.46;69.76;98553.50;6169292;23;20008;-95
2023/11/06 01:49:50;;;;;;;2.22;0.90;;;;;;;13.42;69.88;98557.94;6167613;23;20012;-95
2023/11/06 01:52:21;;;;;;;2.05;1.02;;;;;;;13.42;70.17;98557.16;6142594;23;19996;-94
2023/11/06 01:54:46;;;;;;;1.95;1.30;;;;;;;13.48;70.45;98570.22;6143453;23;20543;-95
2023/11/06 01:57:15;;;;;;;2.42;1.50;;;;;;;13.37;70.74;98559.97;6142481;23;20004;-95
2023/11/06 01:59:42;;;;;;;3.67;1.58;;;;;;;13.34;70.86;98562.19;6144056;23;20000;-95
2023/11/06 02:02:14;;;;;;;3.08;1.70;;;;;;;13.30;70.62;98565.78;6167510;23;20001;-94
2023/11/06 02:04:50;;;;;;;3.47;1.90;;;;;;;13.26;70.90;98573.69;6170573;23;20005;-95
2023/11/06 02:07:17;;;;;;;2.80;1.67;;;;;;;13.24;70.56;98570.50;6146917;23;20008;-94
2023/11/06 02:09:52;;;;;;;2.97;1.70;;;;;;;13.19;70.88;98572.53;6167194;23;20386;-94
2023/11/06 02:12:18;;;;;;;3.03;2.05;;;;;;;13.13;71.32;98572.63;6169779;23;20479;-95
2023/11/06 02:14:54;;;;;;;2.95;1.95;;;;;;;13.15;71.35;98585.84;6167273;23;20028;-95
2023/11/06 02:17:28;;;;;;;2.58;1.75;;;;;;;13.13;71.08;98582.63;6167835;23;20040;-94
2023/11/06 02:19:54;;;;;;;4.30;2.20;;;;;;;13.10;71.33;98594.06;6145734;23;20020;-94
2023/11/06 02:22:23;;;;;;;3.42;1.90;;;;;;;13.02;71.14;98578.56;6166641;23;20003;-93
2023/11/06 02:24:49;;;;;;;4.97;2.03;;;;;;;12.98;71.36;98589.19;6168124;23;20032;-94
2023/11/06 02:27:18;;;;;;;2.95;1.80;;;;;;;12.99;71.41;98606.19;6142831;23;20072;-93
2023/11/06 02:29:46;;;;;;;3.58;2.20;;;;;;;12.91;71.73;98594.22;6143652;23;20000;-95
2023/11/06 02:32:12;;;;;;;2.78;1.85;;;;;;;12.87;71.81;98604.81;6142796;23;20004;-95
2023/11/06 02:34:40;;;;;;;3.03;2.03;;;;;;;12.99;71.94;98625.94;6142692;23;20028;-94
2023/11/06 02:37:09;;;;;;;7.18;2.65;;;;;;;12.86;72.11;98619.41;6143432;23;20003;-95
2023/11/06 02:39:34;;;;;;;3.20;1.80;;;;;;;12.79;72.21;98613.63;6168048;23;20509;-95
2023/11/06 02:42:06;;;;;;;4.95;2.13;;;;;;;12.76;72.56;98605.31;6167035;23;20079;-95
2023/11/06 02:44:45;;;;;;;4.45;2.20;;;;;;;12.86;72.97;98635.63;6168445;23;20035;-94
2023/11/06 02:47:13;;;;;;;4.30;1.88;;;;;;;12.75;72.98;98628.84;6143128;23;20083;-95
2023/11/06 02:49:39;;;;;;;4.55;2.40;;;;;;;12.66;73.51;98625.25;6167664;23;20008;-95
2023/11/06 02:52:09;;;;;;;4.20;2.15;;;;;;;12.47;73.98;98612.66;6141625;23;20011;-94
2023/11/06 02:54:44;;;;;;;3.03;1.80;;;;;;;12.48;74.18;98616.13;6167389;23;20000;-96
2023/11/06 02:57:09;;;;;;;6.18;1.50;;;;;;;12.45;74.61;98622.13;6145540;23;20344;-94
2023/11/06 02:59:38;;;;;;;3.35;1.60;;;;;;;12.30;74.86;98613.22;6141217;23;20000;-95
2023/11/06 03:02:07;;;;;;;4.07;1.88;;;;;;;12.31;75.35;98627.53;6143366;23;19996;-95
2023/11/06 03:04:33;;;;;;;3.88;1.80;;;;;;;12.37;75.31;98639.84;6142366;23;19997;-95
2023/11/06 03:07:01;;;;;;;5.10;2.08;;;;;;;12.17;75.71;98641.00;6142727;23;20007;-96
2023/11/06 03:09:26;;;;;;;3.38;1.95;;;;;;;12.15;76.09;98640.50;6141502;23;20452;-95
2023/11/06 03:11:52;;;;;;;3.90;1.45;;;;;;;12.31;75.71;98663.41;6142120;23;20071;-95
2023/11/06 03:14:18;;;;;;;4.32;1.50;;;;;;;12.27;75.65;98664.31;6143251;23;20415;-94
2023/11/06 03:30:00;;;;;;;2.67;1.65;;;;;;;12.10;76.54;98654.09;6244406;22;20089;-95
2023/11/06 03:32:28;;;;;;;3.10;1.63;;;;;;;12.13;76.57;98666.97;6198680;23;20008;-94
2023/11/06 03:34:56;;;;;;;4.38;3.10;;;;;;;12.07;76.49;98660.06;6175826;23;20083;-95
2023/11/06 03:37:21;;;;;;;6.53;3.00;;;;;;;12.08;76.15;98656.28;6174599;23;19996;-95
2023/11/06 03:39:47;;;;;;;3.42;2.85;;;;;;;12.19;75.84;98675.78;6173875;23;20006;-95
2023/11/06 03:42:15;;;;;;;5.70;2.63;;;;;;;12.20;75.84;98675.50;6174239;23;20036;-94
2023/11/06 03:44:44;;;;;;;5.47;2.90;;;;;;;12.16;75.95;98679.88;6173442;23;20004;-94
2023/11/06 03:47:10;;;;;;;5.63;3.10;;;;;;;12.23;76.02;98693.00;6198392;23;20004;-94
2023/11/06 03:49:36;;;;;;;12.10;3.83;;;;;;;12.18;76.13;98682.28;6173740;23;20461;-94
2023/11/06 03:52:03;;;;;;;3.35;2.42;;;;;;;12.28;76.98;98704.47;6199318;23;20006;-94
2023/11/06 03:54:30;;;;;;;5.88;2.67;;;;;;;12.19;77.36;98689.28;6200018;23;20008;-94
2023/11/06 03:56:55;;;;;;;3.88;2.25;;;;;;;12.23;77.46;98696.50;6173039;23;20003;-94
2023/11/06 03:59:21;;;;;;;2.75;2.15;;;;;;;12.22;77.72;98694.06;6198438;23;20019;-94
2023/11/06 04:01:46;;;;;;;5.65;2.00;;;;;;;12.12;77.62;98687.75;6173485;23;20010;-95
2023/11/06 04:04:15;;;;;;;2.40;1.33;;;;;;;12.07;77.63;98678.94;6173095;23;20086;-95
2023/11/06 04:06:44;;;;;;;2.97;1.52;;;;;;;12.09;77.49;98690.25;6174765;23;20000;-93
2023/11/06 04:09:12;;;;;;;4.25;2.00;;;;;;;12.15;77.28;98701.78;6173649;23;20413;-95
2023/11/06 04:11:45;;;;;;;4.72;2.60;;;;;;;12.12;77.67;98703.97;6174841;23;20028;-95
2023/11/06 04:14:10;;;;;;;4.28;2.88;;;;;;;11.98;77.84;98686.13;6175352;23;20079;-94
2023/11/06 04:16:38;;;;;;;2.35;1.48;;;;;;;11.96;78.35;98710.69;6199341;23;19985;-95
2023/11/06 04:19:10;;;;;;;2.80;1.80;;;;;;;11.92;77.99;98715.06;6174315;23;19996;-94
2023/11/06 04:21:36;;;;;;;2.22;1.40;;;;;;;11.79;78.00;98705.78;6174994;23;20008;-94
2023/11/06 04:24:12;;;;;;;4.50;1.60;;;;;;;11.79;78.22;98716.59;6174323;23;20007;-95
2023/11/06 04:26:40;;;;;;;3.08;1.80;;;;;;;11.74;78.35;98722.03;6176879;23;20031;-95
2023/11/06 04:29:08;;;;;;;5.22;3.38;;;;;;;11.73;78.46;98726.63;6175248;23;20028;-95
2023/11/06 04:31:45;;;;;;;5.93;3.03;;;;;;;11.71;78.23;98726.13;6174968;23;20061;-96
2023/11/06 04:34:11;;;;;;;5.18;2.45;;;;;;;11.79;77.58;98727.38;6177951;23;19996;-94
2023/11/06 04:36:47;;;;;;;;;;;;;;;;;;;;;
2023/11/06 04:39:13;;;;;;;5.47;2.55;;;;;;;11.81;77.96;98754.84;6203938;23;20079;-96
2023/11/06 04:41:39;;;;;;;4.88;3.10;;;;;;;11.73;77.95;98745.53;6174735;23;20010;-94
2023/11/06 04:44:25;;;;;;;8.45;2.80;;;;;;;11.59;78.56;98739.25;6176535;23;20419;-96
2023/11/06 04:46:51;;;;;;;5.97;2.47;;;;;;;11.64;79.13;98766.16;6197292;23;20015;-96
2023/11/06 04:49:19;;;;;;;7.30;3.20;;;;;;;11.64;79.35;98768.84;6173251;23;19996;-95
2023/11/06 04:51:47;;;;;;;5.13;2.53;;;;;;;11.69;79.25;98776.84;6174713;23;20518;-96
2023/11/06 04:54:21;;;;;;;8.25;3.70;;;;;;;11.64;78.80;98768.03;6174376;23;20453;-94
2023/11/06 04:56:49;;;;;;;7.90;4.03;;;;;;;11.48;79.06;98760.16;6178171;23;20000;-93
2023/11/06 04:59:15;;;;;;;5.22;4.43;;;;;;;11.54;79.12;98785.16;6175972;23;20011;-95
2023/11/06 05:01:47;;;;;;;6.15;2.92;;;;;;;11.63;79.37;98796.09;6173744;23;20034;-95
2023/11/06 05:04:35;;;;;;;5.03;3.50;;;;;;;11.47;79.59;98787.38;6177584;23;19996;-96
2023/11/06 05:07:04;;;;;;;8.27;2.83;;;;;;;11.57;79.81;98813.44;6201719;23;20036;-92
2023/11/06 05:09:30;;;;;;;6.55;2.75;;;;;;;11.48;79.86;98816.75;6177292;23;20062;-94
2023/11/06 05:15:38;;;;;;;7.20;3.50;;;;;;;11.16;80.09;98803.13;6187407;23;20025;-96
2023/11/06 05:18:37;;;;;;;;;;;;;;;;;;;;;
2023/11/06 05:21:03;;;;;;;4.80;2.92;;;;;;;11.37;80.07;98836.03;6144833;23;20028;-95
2023/11/06 05:23:38;;;;;;;6.20;3.55;;;;;;;11.23;80.11;98812.47;6174112;23;20034;-95
2023/11/06 05:26:15;;;;;;;;;;;;;;;;;;;;;
2023/11/06 05:28:41;;;;;;;5.88;3.58;;;;;;;11.15;81.57;98823.06;6165333;23;20429;-96
2023/11/06 05:31:25;;;;;;;;;;;;;;;;;;;;;
2023/11/06 05:33:58;;;;;;;6.45;3.08;;;;;;;11.35;80.81;98847.13;6118105;23;20028;-94
2023/11/06 05:36:28;;;;;;;10.73;5.10;;;;;;;11.46;81.14;98872.84;6162991;23;19997;-94
2023/11/06 05:38:56;;;;;;;5.95;2.78;;;;;;;11.27;80.74;98856.63;6136968;23;20032;-96
2023/11/06 05:41:25;;;;;;;3.83;2.28;;;;;;;11.34;80.42;98864.38;6161290;23;20076;-94
2023/11/06 05:43:55;;;;;;;8.40;2.80;;;;;;;11.35;80.03;98875.94;6168131;23;20047;-96
2023/11/06 05:46:47;;;;;;;6.25;3.60;;;;;;;11.44;79.98;98882.34;6080409;23;20469;-95
2023/11/06 05:50:04;;;;;;;8.00;3.10;;;;;;;11.56;79.89;98903.47;6034289;23;20007;-96
2023/11/06 05:52:30;;;;;;;6.28;3.53;;;;;;;11.38;80.42;98883.47;6043428;23;20358;-94
2023/11/06 05:55:12;;;;;;;;;;;;;;;;;;;;;
2023/11/06 05:57:55;;;;;;;14.18;6.13;;;;;;;11.42;79.89;98908.78;6081406;23;20449;-96
2023/11/06 06:00:31;;;;;;;16.30;5.30;;;;;;;11.61;79.96;98933.09;6032015;23;19998;-94
2023/11/06 06:03:04;;;;;;;10.98;4.88;;;;;;;11.62;78.93;98903.16;6052955;23;20473;-96
2023/11/06 06:05:42;;;;;;;;;;;;;;;;;;;;;
2023/11/06 06:08:42;;;;;;;8.77;3.60;;;;;;;11.80;79.31;98895.41;6060990;23;20029;-96
2023/11/06 06:14:50;;;;;;;6.82;4.15;;;;;;;12.32;78.37;98926.84;6087296;23;20027;-94
2023/11/06 06:17:18;;;;;;;6.65;4.05;;;;;;;12.40;78.36;98908.41;6112951;23;20013;-96
2023/11/06 06:19:43;;;;;;;15.65;5.93;;;;;;;12.72;78.35;98931.97;6162499;23;19993;-94
2023/11/06 06:22:26;;;;;;;10.75;5.13;;;;;;;12.74;78.14;98927.91;6142208;23;20021;-94
2023/11/06 06:25:24;;;;;;;11.68;4.90;;;;;;;12.68;77.61;98925.56;6202066;23;20031;-96
2023/11/06 06:28:07;;;;;;;9.35;3.80;;;;;;;12.80;76.74;98946.72;6160898;23;20001;-96
2023/11/06 06:30:36;;;;;;;6.82;3.75;;;;;;;13.01;75.47;98966.94;6141924;23;20372;-95
2023/11/06 06:33:09;;;;;;;10.63;4.53;;;;;;;12.99;76.11;98952.09;6116029;23;20005;-95
2023/11/06 06:35:36;;;;;;;16.17;4.40;;;;;;;13.10;75.69;98962.47;6190927;23;20008;-96
2023/11/06 06:42:17;;;;;;;16.77;4.73;;;;;;;13.21;75.60;98970.41;6109368;23;20168;-93
2023/11/06 06:44:48;;;;;;;11.10;5.30;;;;;;;13.18;75.70;98970.97;6119511;23;20028;-96
2023/11/06 06:47:15;;;;;;;16.33;5.40;;;;;;;13.09;76.22;98974.38;6140877;23;20013;-94
2023/11/06 06:49:41;;;;;;;8.48;4.32;;;;;;;13.07;76.12;98970.34;6114774;23;20067;-94
2023/11/06 06:52:11;;;;;;;12.82;5.20;;;;;;;13.11;75.25;98964.09;6165996;23;20001;-94
2023/11/06 06:54:38;;;;;;;19.67;5.03;;;;;;;13.17;75.25;98983.69;6194144;23;20001;-95
2023/11/06 06:57:23;;;;;;;16.95;7.95;;;;;;;13.45;74.61;98997.34;6142409;23;20008;-96
2023/11/06 06:59:52;;;;;;;24.63;11.88;;;;;;;13.55;73.52;98997.19;6163198;23;20036;-93
2023/11/06 07:02:20;;;;;;;10.15;5.30;;;;;;;13.53;72.42;98972.34;6142243;23;20009;-95
2023/11/06 07:10:22;;;;;;;13.25;5.30;;;;;;;14.05;71.72;99010.06;6236601;22;20023;31
2023/11/06 07:12:48;;;;;;;12.57;5.03;;;;;;;14.00;71.69;98983.88;6140103;23;20025;-94
2023/11/06 07:15:14;;;;;;;12.90;5.60;;;;;;;14.27;72.09;99014.78;6141219;23;20001;-95
2023/11/06 07:17:40;;;;;;;11.18;4.95;;;;;;;14.26;71.61;99003.16;6118116;23;19997;-93
2023/11/06 07:28:24;;;;;;;14.40;7.95;;;;;;;14.65;69.79;99023.50;6243933;22;20031;-94
2023/11/06 07:30:55;;;;;;;14.30;7.25;;;;;;;14.82;68.97;99027.50;6184928;23;20092;-96
2023/11/06 07:33:21;;;;;;;16.70;6.20;;;;;;;14.89;69.14;99023.22;6188065;23;20000;-96
2023/11/06 07:35:50;;;;;;;16.70;6.15;;;;;;;14.98;69.15;99020.59;6206844;23;20003;-96
2023/11/06 07:38:25;;;;;;;17.45;7.30;;;;;;;15.03;68.74;99020.50;6211092;23;20000;-95
2023/11/06 07:41:04;;;;;;;;;;;;;;;;;;;;;
2023/11/06 07:43:46;;;;;;;;;;;;;;;;;;;;;
2023/11/06 07:48:48;;;;;;;15.60;7.70;;;;;;;15.47;66.89;99028.94;6234378;22;20028;-96
2023/11/06 07:51:57;;;;;;;34.38;13.85;;;;;;;15.56;66.39;99032.50;6206018;23;19996;-96
2023/11/06 08:06:44;;;;;;;;;;;;;;;;;;;;;
2023/11/06 08:12:38;;;;;;;15.82;6.43;;;;;;;16.30;61.75;99037.38;6194053;23;20048;-91
2023/11/06 08:15:24;;;;;;;14.10;5.82;;;;;;;16.57;60.72;99060.00;6192509;23;20431;-90
2023/11/06 08:17:52;;;;;;;22.13;8.52;;;;;;;16.61;60.31;99050.09;6192460;23;20003;-93
2023/11/06 08:20:33;;;;;;;9.38;5.45;;;;;;;16.69;57.78;99040.38;6169029;23;20001;-91
2023/11/06 09:07:13;;;;;;;;;;;;;;;;;;;;;
2023/11/06 09:10:02;;;;;;;;;;;;;;;;;;;;;
2023/11/06 09:13:01;;;;;;;;;;;;;;;;;;;;;
2023/11/06 09:15:40;;;;;;;5.47;0.90;;;;;;;20.03;38.95;99092.06;6238738;22;20050;-96
2023/11/06 09:18:10;;;;;;;5.30;1.02;;;;;;;20.04;39.08;99094.44;6209672;23;20004;-95
2023/11/06 09:21:11;;;;;;;4.40;2.67;;;;;;;20.11;39.18;99091.97;6205885;23;20000;-95
2023/11/06 09:23:49;;;;;;;;;;;;;;;;;;;;;
2023/11/06 09:26:48;;;;;;;4.63;0.90;;;;;;;20.22;38.77;99097.78;6211959;23;20019;-94
2023/11/06 09:41:19;;;;;;;;;;;;;;;;;;;;;
2023/11/06 09:43:59;;;;;;;6.45;0.95;;;;;;;20.55;37.13;99094.94;6263722;22;20058;-94
2023/11/06 09:49:45;;;;;;;2.63;0.90;;;;;;;20.59;37.43;99089.63;6242464;22;20003;-91
2023/11/06 09:52:29;;;;;;;;;;;;;;;;;;;;;
2023/11/06 09:55:19;;;;;;;;;;;;;;;;;;;;;
2023/11/06 09:57:58;;;;;;;3.08;1.20;;;;;;;20.83;35.41;99091.53;6234037;22;20030;-94
2023/11/06 10:00:54;;;;;;;;;;;;;;;;;;;;;
2023/11/06 10:04:28;;;;;;;;;;;;;;;;;;;;;
2023/11/06 10:10:40;;;;;;;4.43;1.03;;;;;;;21.00;34.66;99090.50;6150664;23;20005;-95
2023/11/06 10:13:11;;;;;;;2.22;0.75;;;;;;;21.08;34.68;99092.28;6140768;23;20006;-96
2023/11/06 10:15:50;;;;;;;3.35;0.88;;;;;;;21.10;35.22;99092.75;6204080;22;20003;-93
2023/11/06 10:22:00;;;;;;;4.90;0.88;;;;;;;21.12;34.83;99115.09;6233436;23;20019;-95
2023/11/06 10:28:37;;;;;;;;;;;;;;;;;;;;;
2023/11/06 10:31:50;;;;;;;;;;;;;;;;;;;;;
2023/11/06 10:35:24;;;;;;;;;;;;;;;;;;;;;
2023/11/06 10:39:03;;;;;;;;;;;;;;;;;;;;;
2023/11/06 10:41:45;;;;;;;2.60;0.95;;;;;;;20.49;34.98;99101.78;6116166;23;20026;-93
2023/11/06 10:45:21;;;;;;;;;;;;;;;;;;;;;
2023/11/06 10:48:17;;;;;;;;;;;;;;;;;;;;;
2023/11/06 10:51:16;;;;;;;;;;;;;;;;;;;;;
2023/11/06 10:58:19;;;;;;;;;;;;;;;;;;;;;
2023/11/06 11:01:23;;;;;;;4.50;0.60;;;;;;;20.54;34.77;99136.31;5946310;24;20009;-95
2023/11/06 11:04:21;;;;;;;;;;;;;;;;;;;;;
2023/11/06 11:29:09;;;;;;;6.95;1.33;;;;;;;20.70;37.80;99098.19;6134761;23;20004;-94
2023/11/06 11:31:47;;;;;;;3.05;0.95;;;;;;;20.70;38.77;99109.13;6202894;23;20031;-92
2023/11/06 11:35:09;;;;;;;6.03;1.00;;;;;;;20.71;39.18;99129.84;6204907;23;19996;-92
2023/11/06 11:38:04;;;;;;;;;;;;;;;20.69;39.57;99130.22;6205155;23;20360;-94
2023/11/06 11:44:50;;;;;;;5.72;0.93;;;;;;;20.61;38.35;99135.78;6131366;23;20028;-92
2023/11/06 11:52:29;;;;;;;3.40;0.88;;;;;;;20.63;36.37;99131.59;6199049;22;20017;-95
2023/11/06 12:44:53;;;;;;;3.90;1.10;;;;;;;20.42;39.08;99160.91;6192589;22;20029;-94
2023/11/06 12:47:51;;;;;;;4.35;1.10;;;;;;;20.50;39.19;99168.22;6145390;23;20001;-92
2023/11/06 12:50:17;;;;;;;17.67;7.75;;;;;;;20.27;39.47;99149.50;6140410;23;20005;-93
2023/11/06 12:52:48;;;;;;;5.72;1.02;;;;;;;20.32;38.87;99152.03;6142546;23;20005;-94
2023/11/06 12:55:17;;;;;;;4.03;0.85;;;;;;;20.32;39.17;99160.22;6119765;23;20001;-93
2023/11/06 12:57:42;;;;;;;5.18;1.85;;;;;;;20.32;39.50;99152.03;6114901;23;20317;-93
2023/11/06 13:00:30;;;;;;;4.07;1.33;;;;;;;20.32;39.37;99170.38;6139167;23;19997;-93
2023/11/06 13:02:59;;;;;;;3.55;0.70;;;;;;;20.26;38.84;99158.06;6148288;23;20057;-92
2023/11/06 13:05:29;;;;;;;4.65;1.88;;;;;;;20.37;38.99;99190.06;6141818;23;19997;-93
2023/11/06 13:07:57;;;;;;;4.88;1.80;;;;;;;20.29;38.33;99171.81;6116073;23;20013;-93
2023/11/06 13:10:22;;;;;;;4.60;0.85;;;;;;;20.24;38.70;99171.25;6143550;23;20075;-92
2023/11/06 13:12:57;;;;;;;3.70;0.90;;;;;;;20.24;38.83;99174.00;6119443;23;20012;-94
2023/11/06 13:15:31;;;;;;;5.03;1.80;;;;;;;20.23;38.84;99172.38;6121529;23;20000;-93
2023/11/06 13:18:27;;;;;;;5.38;1.05;;;;;;;20.16;39.50;99186.63;6121773;23;20004;-92
2023/11/06 13:21:15;;;;;;;3.17;0.63;;;;;;;20.17;38.97;99199.13;6143287;23;20005;-93
2023/11/06 13:24:00;;;;;;;3.10;0.82;;;;;;;20.10;39.49;99186.03;6127780;23;20065;-94
2023/11/06 13:26:53;;;;;;;5.20;1.38;;;;;;;20.17;39.24;99193.66;6149824;23;20012;-95
2023/11/06 13:29:32;;;;;;;;;;;;;;;;;;;;;
2023/11/06 13:32:12;;;;;;;6.15;1.02;;;;;;;20.05;39.54;99188.97;6147096;23;20024;-92
2023/11/06 13:34:51;;;;;;;4.22;0.75;;;;;;;20.12;40.28;99191.16;6144907;23;20005;-93
2023/11/06 13:37:26;;;;;;;;;;;;;;;;;;;;;
2023/11/06 13:40:14;;;;;;;8.05;2.00;;;;;;;20.06;39.92;99193.28;6144171;23;20024;-93
2023/11/06 13:42:52;;;;;;;7.22;0.80;;;;;;;20.04;39.85;99202.97;6119275;23;20025;-94
2023/11/06 13:45:22;;;;;;;6.45;2.78;;;;;;;19.99;40.22;99196.56;6165446;23;20000;-93
2023/11/06 13:48:08;;;;;;;5.03;1.27;;;;;;;19.91;40.26;99193.94;6140623;23;20001;-93
2023/11/06 13:51:00;;;;;;;4.22;1.10;;;;;;;19.86;40.43;99208.59;6124884;23;20063;-92
2023/11/06 13:53:38;;;;;;;6.45;0.98;;;;;;;19.77;40.34;99205.13;6144170;23;20418;-94
2023/11/06 13:59:06;;;;;;;5.82;1.50;;;;;;;19.82;40.99;99212.31;6124710;23;20001;-91
2023/11/06 14:01:47;;;;;;;7.78;1.20;;;;;;;19.71;40.30;99212.72;6114695;23;20008;-93
2023/11/06 14:04:27;;;;;;;3.28;0.85;;;;;;;19.62;41.04;99222.88;6143429;23;20023;-95
2023/11/06 14:07:06;;;;;;;4.63;1.10;;;;;;;19.51;41.23;99211.56;6144976;23;20013;-93
2023/11/06 14:09:48;;;;;;;5.13;1.15;;;;;;;19.68;41.32;99232.47;6122179;23;20395;-93
2023/11/06 14:12:24;;;;;;;5.47;1.20;;;;;;;19.42;41.93;99220.94;6115769;23;20067;-92
2023/11/06 14:14:51;;;;;;;2.65;0.82;;;;;;;19.37;42.22;99222.72;6161764;23;20020;-93
2023/11/06 14:17:26;;;;;;;6.60;4.07;;;;;;;19.37;42.73;99225.47;6136517;23;20008;-92
2023/11/06 14:20:09;;;;;;;;;;;;;;;;;;;;;
2023/11/06 14:22:37;;;;;;;3.95;1.20;;;;;;;19.44;42.97;99254.16;6148006;23;20027;-94
2023/11/06 14:25:17;;;;;;;3.05;1.02;;;;;;;19.14;43.00;99219.50;6140380;23;19996;-92
2023/11/06 14:27:52;;;;;;;4.32;1.40;;;;;;;19.32;43.54;99238.50;6120091;23;20009;-94
2023/11/06 14:30:33;;;;;;;;;;;;;;;;;;;;;
2023/11/06 14:33:06;;;;;;;3.47;1.45;;;;;;;19.08;43.31;99242.63;6150079;23;20029;-92
2023/11/06 14:36:06;;;;;;;;;;;;;;;;;;;;;
2023/11/06 14:38:36;;;;;;;3.38;1.10;;;;;;;18.94;43.09;99242.06;6167612;23;20036;-91
2023/11/06 14:41:15;;;;;;;9.30;2.03;;;;;;;18.75;44.93;99236.97;6115187;23;20317;-93
2023/11/06 14:43:43;;;;;;;3.63;0.93;;;;;;;18.71;43.69;99247.72;6117719;23;20017;-93
2023/11/06 14:47:23;;;;;;;;;;;;;;;;;;;;;
2023/11/06 14:49:48;;;;;;;;;;;;;;;;;;;;;
2023/11/06 14:53:02;;;;;;;;;;;;;;;;;;;;;
2023/11/06 14:55:40;;;;;;;;;;;;;;;;;;;;;
2023/11/06 14:58:06;;;;;;;3.10;1.00;;;;;;;18.34;44.03;99263.69;6142546;23;20028;-91
2023/11/06 15:00:45;;;;;;;;;;;;;;;;;;;;;
2023/11/06 15:03:23;;;;;;;2.78;0.98;;;;;;;18.33;44.00;99281.16;6145291;23;20404;-95
2023/11/06 15:06:04;;;;;;;;;;;;;;;;;;;;;
2023/11/06 15:15:31;;;;;;;8.98;2.40;;;;;;;17.79;47.44;99286.09;6019406;23;20003;-94
2023/11/06 15:39:50;;;;;;;;;;;;;;;;;;;;;
2023/11/06 15:42:26;;;;;;;;;;;;;;;;;;;;;
2023/11/06 15:44:52;;;;;;;6.80;3.90;;;;;;;17.01;49.51;99321.22;6166245;23;20072;-90
2023/11/06 15:47:17;;;;;;;13.45;4.53;;;;;;;16.96;51.13;99335.78;6137155;23;20036;-92
2023/11/06 15:49:50;;;;;;;8.00;2.42;;;;;;;16.67;51.25;99326.13;6165321;23;20467;-91
2023/11/06 15:52:49;;;;;;;7.45;3.25;;;;;;;16.57;51.63;99329.91;6118525;23;20470;-92
2023/11/06 15:55:15;;;;;;;12.57;3.63;;;;;;;16.63;51.30;99338.72;6123329;23;20118;-91
2023/11/06 15:57:40;;;;;;;9.75;2.53;;;;;;;16.51;51.79;99335.75;6162972;23;20003;-90
2023/11/06 16:00:44;;;;;;;;;;;;;;;;;;;;;
2023/11/06 16:03:18;;;;;;;5.82;2.75;;;;;;;16.46;50.51;99344.06;6188631;23;20017;-91
2023/11/06 16:05:53;;;;;;;11.93;2.40;;;;;;;16.51;50.10;99355.59;6166750;23;20004;-96
2023/11/06 16:08:45;;;;;;;7.32;1.90;;;;;;;16.57;49.79;99372.59;6125553;23;20005;-94
2023/11/06 16:11:27;;;;;;;;;;;;;;;;;;;;;
2023/11/06 16:13:53;;;;;;;15.32;4.35;;;;;;;16.43;51.97;99386.22;6147945;23;20016;-94
2023/11/06 16:16:19;;;;;;;11.25;3.22;;;;;;;16.24;53.49;99367.34;6116500;23;20039;-94
2023/11/06 16:19:27;;;;;;;13.60;3.15;;;;;;;16.26;53.34;99392.31;6123043;23;20368;-93
2023/11/06 16:25:06;;;;;;;;;;;;;;;;;;;;;
2023/11/06 16:54:35;;;;;;;10.20;3.13;;;;;;;15.31;56.91;99422.66;6255102;22;20028;-93
2023/11/06 16:57:20;;;;;;;14.05;4.10;;;;;;;15.21;57.00;99420.16;6181195;23;20000;-93
2023/11/06 16:59:53;;;;;;;12.25;4.15;;;;;;;15.28;57.32;99439.53;6187948;23;20099;-93
2023/11/06 17:02:18;;;;;;;15.57;4.18;;;;;;;15.23;57.27;99436.09;6199440;23;20003;-91
2023/11/06 17:04:55;;;;;;;;;;;;;;;;;;;;;
2023/11/06 17:07:30;;;;;;;14.50;3.72;;;;;;;15.09;57.94;99426.03;6225793;23;20067;-92
2023/11/06 17:09:58;;;;;;;9.25;4.40;;;;;;;15.08;58.38;99427.13;6198722;23;20004;-92
2023/11/06 17:12:27;;;;;;;9.20;3.78;;;;;;;15.01;58.62;99431.34;6175194;23;20000;-91
2023/11/06 17:14:57;;;;;;;14.07;4.68;;;;;;;15.00;58.32;99438.66;6224304;23;19996;-91
2023/11/06 17:17:51;;;;;;;;;;;;;;;;;;;;;
2023/11/06 17:20:28;;;;;;;9.90;4.32;;;;;;;14.81;58.88;99440.59;6208705;23;20012;-92
2023/11/06 17:23:17;;;;;;;;;;;;;;;;;;;;;
2023/11/06 17:26:38;;;;;;;17.90;4.60;;;;;;;14.72;59.04;99464.84;6212954;23;20020;-95
2023/11/06 17:33:02;;;;;;;;;;;;;;;;;;;;;
2023/11/06 17:43:33;;;;;;;;;;;;;;;;;;;;;
2023/11/06 17:49:41;;;;;;;9.65;4.00;;;;;;;14.19;60.53;99492.06;6017333;23;20022;-96
2023/11/06 17:57:31;;;;;;;;;;;;;;;;;;;;;
2023/11/06 18:00:23;;;;;;;;;;;;;;;;;;;;;
2023/11/06 18:02:51;;;;;;;11.52;4.47;;;;;;;13.77;61.67;99491.72;6242806;22;20027;-96
2023/11/06 18:05:23;;;;;;;13.93;4.75;;;;;;;13.79;61.46;99500.34;6209788;22;20385;-96
2023/11/06 18:07:54;;;;;;;16.95;5.70;;;;;;;13.94;62.19;99529.16;6211724;22;20004;-96
2023/11/06 18:10:45;;;;;;;13.93;5.00;;;;;;;13.78;62.13;99493.34;6236738;22;19995;-96
2023/11/06 18:13:17;;;;;;;22.80;6.28;;;;;;;13.72;63.31;99516.16;6243316;22;20000;-95